Time;durP1;ratioP1;P1;durP2;ratioP2;P2;SDS_P1;SDS_P2;PMS_P1;PMS_P2;Temp;Humidity;BMP_temperature;BMP_pressure;BME280_temperature;BME280_humidity;BME280_pressure;Samples;Min_cycle;Max_cycle;Signal;HPM_P1;HPM_P2
2020/12/28 00:06:06;;;;;;;1999.90;999.90;;;;;;;4.51;52.67;98231.16;15732392;28;20125;-52
2020/12/28 00:13:40;;;;;;;1999.90;999.90;;;;;;;4.31;53.16;98211.69;15732378;28;20139;-55
2020/12/28 00:21:13;;;;;;;1999.90;999.90;;;;;;;4.29;53.76;98194.69;15712428;28;20072;-52
2020/12/28 00:28:46;;;;;;;1999.90;999.90;;;;;;;4.14;54.61;98187.16;15713431;28;20087;-51
2020/12/28 00:36:19;;;;;;;1999.90;999.90;;;;;;;4.16;55.08;98179.31;15736648;28;20102;-53
2020/12/28 00:43:52;;;;;;;1999.90;999.90;;;;;;;4.15;55.09;98169.44;15742113;28;20090;-52
2020/12/28 00:51:25;;;;;;;1999.90;999.90;;;;;;;4.04;56.03;98190.41;15742814;28;20093;-55
2020/12/28 00:59:01;;;;;;;1999.90;999.90;;;;;;;4.21;55.22;98186.56;15723630;28;20100;-50
2020/12/28 01:06:34;;;;;;;1999.90;999.90;;;;;;;3.98;55.56;98178.03;15707240;28;20045;-53
2020/12/28 01:14:34;;;;;;;1999.90;999.90;;;;;;;4.12;56.02;98126.00;15715562;28;20055;-51
2020/12/28 01:22:07;;;;;;;1999.90;999.90;;;;;;;3.89;57.71;98125.78;15706076;28;20100;-52
2020/12/28 01:29:41;;;;;;;;;;;;;;;4.42;56.31;98134.69;15723692;28;20528;-51
2020/12/28 01:37:15;;;;;;;1999.90;999.90;;;;;;;4.29;56.99;98155.25;15721960;28;20019;-50
2020/12/28 01:44:56;;;;;;;1999.90;999.90;;;;;;;4.08;57.86;98166.50;15720907;28;20507;-52
2020/12/28 01:52:34;;;;;;;1999.90;999.90;;;;;;;4.15;57.99;98166.69;15720554;28;20409;-55
2020/12/28 02:00:08;;;;;;;1999.90;999.90;;;;;;;4.14;58.46;98153.25;15720130;28;20040;-58
2020/12/28 02:07:53;;;;;;;1999.90;999.90;;;;;;;3.94;58.90;98166.09;15736544;28;20047;-56
2020/12/28 02:15:38;;;;;;;1999.90;999.90;;;;;;;4.24;58.33;98161.81;15686018;28;20085;-58
2020/12/28 02:23:30;;;;;;;1999.90;999.90;;;;;;;4.15;59.09;98143.81;15719140;28;20044;-54
2020/12/28 02:31:03;;;;;;;1999.90;999.90;;;;;;;3.88;59.98;98131.66;15718913;28;20040;-54
2020/12/28 02:39:02;;;;;;;1999.90;999.90;;;;;;;4.17;59.82;98119.41;15701707;28;20051;-50
2020/12/28 02:46:35;;;;;;;1999.90;999.90;;;;;;;4.11;60.05;98116.13;15717434;28;20041;-56
2020/12/28 02:54:27;;;;;;;1999.90;999.90;;;;;;;4.33;59.40;98103.69;15716628;28;20048;-52
2020/12/28 03:02:18;;;;;;;1999.90;999.90;;;;;;;4.17;60.60;98097.31;15716923;28;20056;-56
2020/12/28 03:10:11;;;;;;;1999.90;999.90;;;;;;;4.25;60.42;98105.44;15734653;28;20032;-50
2020/12/28 03:18:02;;;;;;;1999.90;999.90;;;;;;;3.87;62.19;98103.25;15734428;28;20040;-52
2020/12/28 03:25:54;;;;;;;1999.90;999.90;;;;;;;3.43;64.09;98048.03;15734319;28;20124;-52
2020/12/28 03:33:53;;;;;;;1999.90;999.90;;;;;;;3.59;63.72;98052.81;15693499;28;20472;-53
2020/12/28 03:41:50;;;;;;;1999.90;999.90;;;;;;;3.79;63.61;98048.25;15685425;28;20437;-54
2020/12/28 03:49:58;;;;;;;1999.90;999.90;;;;;;;3.72;64.08;98029.53;15634677;28;20105;-54
2020/12/28 03:57:50;;;;;;;1999.90;999.90;;;;;;;3.83;64.04;98003.03;15731711;28;20032;-54
2020/12/28 04:05:41;;;;;;;1999.90;999.90;;;;;;;3.94;64.57;98011.59;15714212;28;20051;-51
2020/12/28 04:13:33;;;;;;;1999.90;999.90;;;;;;;3.92;64.82;97998.16;15705847;28;20051;-52
2020/12/28 04:21:05;;;;;;;1999.90;999.90;;;;;;;4.11;64.48;97988.38;15724703;28;20079;-57
2020/12/28 04:28:40;;;;;;;1999.90;999.90;;;;;;;3.98;65.42;97993.19;15711921;28;20516;-53
2020/12/28 04:36:13;;;;;;;1999.90;999.90;;;;;;;3.74;66.21;97991.38;15742886;28;20476;-50
2020/12/28 04:43:46;;;;;;;1999.90;999.90;;;;;;;3.86;66.28;97999.59;15742620;28;20048;-54
2020/12/28 04:51:19;;;;;;;1999.90;999.90;;;;;;;3.85;65.98;97986.94;15723157;28;20048;-50
2020/12/28 04:58:53;;;;;;;1999.90;999.90;;;;;;;4.04;66.05;97986.22;15722469;28;20105;-51
2020/12/28 05:06:25;;;;;;;1999.90;999.90;;;;;;;3.96;66.17;97989.97;15740372;28;20157;-51
2020/12/28 05:13:59;;;;;;;1999.90;999.90;;;;;;;3.92;66.47;97994.59;15722078;28;20131;-51
2020/12/28 05:21:32;;;;;;;1999.90;999.90;;;;;;;3.91;67.23;97979.22;15740104;28;20049;-53
2020/12/28 05:29:13;;;;;;;1999.90;999.90;;;;;;;4.14;66.75;97971.91;15740450;28;20109;-56
2020/12/28 05:36:47;;;;;;;1999.90;999.90;;;;;;;4.01;67.15;97962.94;15738702;28;20082;-52
2020/12/28 05:44:30;;;;;;;1999.90;999.90;;;;;;;3.99;67.32;97954.22;15738197;28;20466;-53
2020/12/28 05:52:04;;;;;;;1999.90;999.90;;;;;;;4.13;67.01;97951.00;15738920;28;20458;-52
2020/12/28 05:59:40;;;;;;;1999.90;999.90;;;;;;;4.11;67.30;97950.56;15719959;28;20161;-50
2020/12/28 06:07:13;;;;;;;1999.90;999.90;;;;;;;4.17;66.72;97987.78;15719212;28;20135;-52
2020/12/28 06:14:47;;;;;;;1999.90;999.90;;;;;;;4.42;66.30;97974.56;15737262;28;20044;-57
2020/12/28 06:22:21;;;;;;;1999.90;999.90;;;;;;;4.25;66.96;97953.63;15736318;28;20044;-53
2020/12/28 06:30:06;;;;;;;1999.90;999.90;;;;;;;4.25;66.70;97945.34;15736511;28;20040;-52
2020/12/28 06:37:41;;;;;;;1999.90;999.90;;;;;;;4.15;67.00;97939.59;15717863;28;20166;-55
2020/12/28 06:45:16;;;;;;;1999.90;999.90;;;;;;;3.94;67.41;97923.31;15736568;28;20059;-54
2020/12/28 06:52:50;;;;;;;1999.90;999.90;;;;;;;4.19;67.25;97923.94;15735254;28;20072;-54
2020/12/28 07:00:24;;;;;;;1999.90;999.90;;;;;;;4.11;67.26;97897.31;15734205;28;20167;-55
2020/12/28 07:07:57;;;;;;;;;;;;;;;4.34;66.84;97903.78;15734328;28;20072;-54
2020/12/28 07:15:32;;;;;;;1999.90;999.90;;;;;;;4.07;67.52;97905.53;15714764;28;19921;-51
2020/12/28 07:23:04;;;;;;;1999.90;999.90;;;;;;;4.17;66.67;97909.66;15715690;28;20518;-54
2020/12/28 07:30:38;;;;;;;1999.90;999.90;;;;;;;4.27;66.78;97915.47;15699319;28;20530;-51
2020/12/28 07:38:13;;;;;;;1999.90;999.90;;;;;;;4.29;66.39;97924.19;15698026;28;20150;-54
2020/12/28 07:45:47;;;;;;;1999.90;999.90;;;;;;;4.28;66.76;97936.38;15739033;28;20427;-51
2020/12/28 07:53:31;;;;;;;1999.90;999.90;;;;;;;4.29;67.25;97945.47;15727188;28;20063;-56
2020/12/28 08:01:12;;;;;;;1999.90;999.90;;;;;;;4.26;67.85;97948.91;15725643;28;20049;-56
2020/12/28 08:08:45;;;;;;;1999.90;999.90;;;;;;;4.35;68.00;97953.09;15725772;28;20056;-57
2020/12/28 08:16:19;;;;;;;1999.90;999.90;;;;;;;4.45;66.90;97953.72;15744721;28;20120;-54
2020/12/28 08:23:53;;;;;;;1999.90;999.90;;;;;;;4.43;67.37;97950.50;15716544;28;20044;-54
2020/12/28 08:31:27;;;;;;;1999.90;999.90;;;;;;;4.67;66.58;97939.22;15741900;28;20052;-53
2020/12/28 08:39:11;;;;;;;1999.90;999.90;;;;;;;4.67;66.16;97943.94;15722193;28;20072;-55
2020/12/28 08:46:45;;;;;;;1999.90;999.90;;;;;;;4.79;66.09;97930.00;15739860;28;20052;-51
2020/12/28 08:54:24;;;;;;;1999.90;999.90;;;;;;;4.79;65.66;97946.56;15703700;28;20041;-56
2020/12/28 09:01:58;;;;;;;1999.90;999.90;;;;;;;4.80;65.79;97945.44;15742182;28;20049;-52
2020/12/28 09:09:31;;;;;;;1999.90;999.90;;;;;;;4.92;65.68;97942.53;15721717;28;20123;-55
2020/12/28 09:17:05;;;;;;;1999.90;999.90;;;;;;;5.28;64.12;97951.53;15740085;28;20051;-53
2020/12/28 09:24:38;;;;;;;1999.90;999.90;;;;;;;5.70;63.12;97968.94;15737076;28;20040;-55
2020/12/28 09:32:11;;;;;;;1999.90;999.90;;;;;;;5.70;63.01;97954.31;15739842;28;20080;-55
2020/12/28 09:39:44;;;;;;;1999.90;999.90;;;;;;;5.74;62.51;97947.69;15721106;28;20075;-57
2020/12/28 09:47:17;;;;;;;1999.90;999.90;;;;;;;5.34;63.07;97955.63;15720663;28;20080;-56
2020/12/28 09:54:50;;;;;;;1999.90;999.90;;;;;;;5.58;63.36;97946.19;15740317;28;20085;-59
2020/12/28 10:02:24;;;;;;;1999.90;999.90;;;;;;;6.01;61.98;97948.56;15743152;28;20469;-59
2020/12/28 10:09:57;;;;;;;1999.90;999.90;;;;;;;6.94;59.32;97938.88;15740962;28;20089;-59
2020/12/28 10:17:31;;;;;;;1999.90;999.90;;;;;;;7.07;58.64;97931.13;15738068;28;20044;-60
2020/12/28 10:25:06;;;;;;;1999.90;999.90;;;;;;;7.74;56.70;97923.56;15719063;28;20544;-58
2020/12/28 10:32:46;;;;;;;1999.90;999.90;;;;;;;7.93;56.01;97911.44;15916014;27;20435;-59
2020/12/28 10:40:18;;;;;;;1999.90;999.90;;;;;;;8.42;55.04;97912.25;15849229;28;20354;-59
2020/12/28 10:47:52;;;;;;;1999.90;999.90;;;;;;;8.11;55.55;97914.34;15847039;28;20050;-59
2020/12/28 10:55:25;;;;;;;1999.90;999.90;;;;;;;8.11;55.88;97906.81;15850135;28;20457;-61
2020/12/28 11:02:59;;;;;;;1999.90;999.90;;;;;;;8.64;54.32;97916.75;15849876;28;20097;-59
2020/12/28 11:10:31;;;;;;;1999.90;999.90;;;;;;;8.24;55.41;97918.44;15849617;28;20108;-59
2020/12/28 11:18:05;;;;;;;1999.90;999.90;;;;;;;8.57;54.38;97914.75;15848269;28;20044;-59
2020/12/28 11:25:38;;;;;;;1999.90;999.90;;;;;;;8.65;54.56;97926.72;15843062;28;20369;-60
2020/12/28 11:33:14;;;;;;;1999.90;999.90;;;;;;;8.62;54.31;97922.69;15833969;28;20108;-59
2020/12/28 11:40:46;;;;;;;1999.90;999.90;;;;;;;7.58;57.08;97924.97;15823077;28;20108;-57
2020/12/28 11:48:20;;;;;;;1999.90;999.90;;;;;;;7.21;58.20;97920.22;15805258;28;20036;-60
2020/12/28 11:56:02;;;;;;;1999.90;999.90;;;;;;;7.43;57.86;97933.16;15805987;28;20389;-57
2020/12/28 12:03:36;;;;;;;1999.90;999.90;;;;;;;7.13;59.23;97943.47;15804062;28;20131;-60
2020/12/28 12:11:09;;;;;;;1999.90;999.90;;;;;;;7.79;57.73;97934.31;15801560;28;20446;-61
2020/12/28 12:18:42;;;;;;;1999.90;999.90;;;;;;;7.35;59.11;97936.22;15801821;28;20078;-60
2020/12/28 12:26:18;;;;;;;1999.90;999.90;;;;;;;7.12;60.42;97944.66;15801572;28;20047;-59
2020/12/28 12:33:54;;;;;;;1999.90;999.90;;;;;;;7.02;60.99;97956.41;15804965;28;20158;-61
2020/12/28 12:41:27;;;;;;;1999.90;999.90;;;;;;;6.58;62.07;97955.03;15761227;28;20469;-60
2020/12/28 12:49:01;;;;;;;1999.90;999.90;;;;;;;6.39;63.26;97959.88;15800103;28;20058;-60
2020/12/28 12:56:33;;;;;;;1999.90;999.90;;;;;;;6.72;61.43;97945.31;15800751;28;20047;-59
2020/12/28 13:04:29;;;;;;;1999.90;999.90;;;;;;;6.84;61.81;97942.31;15800141;28;20068;-59
2020/12/28 13:12:00;;;;;;;1999.90;999.90;;;;;;;7.01;60.77;97955.63;15799972;28;20047;-58
2020/12/28 13:19:33;;;;;;;1999.90;999.90;;;;;;;7.12;59.93;97955.75;15799136;28;20051;-57
2020/12/28 13:27:07;;;;;;;1999.90;999.90;;;;;;;6.60;61.57;97954.66;15798229;28;20043;-60
2020/12/28 13:34:41;;;;;;;1999.90;999.90;;;;;;;6.57;61.47;97958.16;15797012;28;20139;-58
2020/12/28 13:42:14;;;;;;;1999.90;999.90;;;;;;;6.76;61.03;97952.50;15798582;28;20044;-54
2020/12/28 13:49:47;;;;;;;1999.90;999.90;;;;;;;6.78;60.53;97952.13;15799994;28;20040;-60
2020/12/28 13:57:20;;;;;;;1999.90;999.90;;;;;;;7.05;59.58;97967.53;15799774;28;20052;-58
2020/12/28 14:04:54;;;;;;;1999.90;999.90;;;;;;;6.96;60.28;97967.03;15797880;28;20044;-59
2020/12/28 14:12:26;;;;;;;1999.90;999.90;;;;;;;6.86;60.20;97960.16;15797976;28;20064;-57
2020/12/28 14:20:01;;;;;;;1999.90;999.90;;;;;;;7.07;59.63;97961.63;15798455;28;20032;-60
2020/12/28 14:27:34;;;;;;;1999.90;999.90;;;;;;;7.09;59.45;97953.75;15796143;28;20142;-59
2020/12/28 14:35:11;;;;;;;1999.90;999.90;;;;;;;7.22;59.73;97946.78;15794596;28;20451;-59
2020/12/28 14:42:44;;;;;;;1999.90;999.90;;;;;;;7.08;59.83;97943.81;15794213;28;20043;-61
2020/12/28 14:50:17;;;;;;;1999.90;999.90;;;;;;;6.77;60.80;97939.44;15776677;28;20045;-60
2020/12/28 14:57:50;;;;;;;1999.90;999.90;;;;;;;6.68;60.71;97942.50;15792849;28;20040;-58
2020/12/28 15:05:35;;;;;;;1999.90;999.90;;;;;;;6.70;60.97;97950.44;15794750;28;20048;-59
2020/12/28 15:13:08;;;;;;;1999.90;999.90;;;;;;;6.36;61.44;97950.34;15796929;28;20075;-59
2020/12/28 15:20:41;;;;;;;1999.90;999.90;;;;;;;5.92;63.23;97958.28;15807164;28;20483;-60
2020/12/28 15:28:14;;;;;;;1999.90;999.90;;;;;;;6.19;62.23;97965.47;15806245;28;20345;-59
2020/12/28 15:35:47;;;;;;;1999.90;999.90;;;;;;;6.28;62.28;97970.78;15808906;28;20076;-57
2020/12/28 15:43:20;;;;;;;1999.90;999.90;;;;;;;6.19;61.97;97959.16;15805604;28;20090;-56
2020/12/28 15:50:54;;;;;;;1999.90;999.90;;;;;;;5.97;62.61;97980.13;15805567;28;20063;-60
2020/12/28 15:58:27;;;;;;;;;;;;;;;5.99;62.95;97981.34;15804719;28;20454;-60
2020/12/28 16:06:02;;;;;;;1999.90;999.90;;;;;;;5.59;64.15;97983.75;15804133;28;19942;-59
2020/12/28 16:13:35;;;;;;;1999.90;999.90;;;;;;;5.49;64.65;97966.56;15804267;28;20040;-59
2020/12/28 16:21:08;;;;;;;1999.90;999.90;;;;;;;5.47;64.63;97959.81;15803285;28;20044;-59
2020/12/28 16:28:41;;;;;;;1999.90;999.90;;;;;;;5.66;64.20;97959.78;15803244;28;20040;-59
2020/12/28 16:36:15;;;;;;;1999.90;999.90;;;;;;;5.30;65.66;97969.34;15803100;28;20130;-59
2020/12/28 16:43:49;;;;;;;1999.90;999.90;;;;;;;4.91;66.96;97977.66;15802114;28;20040;-60
2020/12/28 16:51:24;;;;;;;1999.90;999.90;;;;;;;5.34;65.37;97966.69;15803164;28;20078;-59
2020/12/28 16:58:56;;;;;;;1999.90;999.90;;;;;;;5.03;66.36;97981.44;15800827;28;20458;-59
2020/12/28 17:06:30;;;;;;;1999.90;999.90;;;;;;;5.41;64.51;97966.78;15801177;28;20165;-59
2020/12/28 17:14:02;;;;;;;1999.90;999.90;;;;;;;5.43;64.47;97954.22;15799821;28;20048;-59
2020/12/28 17:21:36;;;;;;;1999.90;999.90;;;;;;;5.45;64.15;97971.25;15801193;28;20076;-60
2020/12/28 17:29:09;;;;;;;1999.90;999.90;;;;;;;5.01;66.15;97959.69;15800367;28;20044;-59
2020/12/28 17:36:42;;;;;;;1999.90;999.90;;;;;;;5.36;66.33;97951.31;15796522;28;20138;-61
2020/12/28 17:44:15;;;;;;;1999.90;999.90;;;;;;;5.23;67.01;97960.94;15798604;28;20150;-56
2020/12/28 17:51:51;;;;;;;1999.90;999.90;;;;;;;5.26;67.33;97965.72;15797701;28;20131;-60
2020/12/28 17:59:25;;;;;;;1999.90;999.90;;;;;;;5.15;67.13;97951.69;15797088;28;20371;-60
2020/12/28 18:06:59;;;;;;;1999.90;999.90;;;;;;;4.96;67.99;97948.13;15796791;28;20032;-61
2020/12/28 18:14:31;;;;;;;1999.90;999.90;;;;;;;5.33;67.22;97935.47;15797149;28;20131;-60
2020/12/28 18:22:05;;;;;;;1999.90;999.90;;;;;;;5.10;68.47;97920.75;15795247;28;20773;-57
2020/12/28 18:29:38;;;;;;;1999.90;999.90;;;;;;;5.22;68.08;97931.69;15794987;28;20050;-58
2020/12/28 18:37:11;;;;;;;1999.90;999.90;;;;;;;5.22;67.97;97940.78;15796296;28;20044;-58
2020/12/28 18:44:44;;;;;;;1999.90;999.90;;;;;;;5.54;67.16;97937.03;15795845;28;20052;-57
2020/12/28 18:52:19;;;;;;;1999.90;999.90;;;;;;;5.37;66.87;97935.53;15805073;28;20465;-58
2020/12/28 18:59:51;;;;;;;1999.90;999.90;;;;;;;5.25;67.57;97930.16;15807019;28;20095;-56
2020/12/28 19:07:25;;;;;;;1999.90;999.90;;;;;;;5.28;67.36;97916.41;15807664;28;20129;-59
2020/12/28 19:14:57;;;;;;;;;;;;;;;5.46;67.14;97925.03;15793532;28;20043;-61
2020/12/28 19:22:31;;;;;;;1999.90;999.90;;;;;;;5.22;68.12;97929.72;15812721;28;19924;-60
2020/12/28 19:30:04;;;;;;;;;;;;;;;5.05;68.77;97919.09;15809759;28;20039;-61
2020/12/28 19:37:37;;;;;;;1999.90;999.90;;;;;;;5.01;68.76;97932.06;15808470;28;19987;-60
2020/12/28 19:45:10;;;;;;;1999.90;999.90;;;;;;;5.05;68.51;97935.69;15811185;28;20117;-60
2020/12/28 19:52:44;;;;;;;1999.90;999.90;;;;;;;4.91;69.14;97932.66;15807662;28;20036;-56
2020/12/28 20:00:17;;;;;;;1999.90;999.90;;;;;;;5.02;68.56;97922.59;15805159;28;20442;-60
2020/12/28 20:07:50;;;;;;;1999.90;999.90;;;;;;;5.07;68.37;97907.69;15805258;28;20480;-57
2020/12/28 20:15:23;;;;;;;;;;;;;;;5.16;67.64;97897.22;15803957;28;20098;-58
2020/12/28 20:22:57;;;;;;;1999.90;999.90;;;;;;;5.12;67.84;97888.84;15803526;28;19927;-60
2020/12/28 20:30:30;;;;;;;1999.90;999.90;;;;;;;5.18;67.27;97878.28;15788905;28;20119;-61
2020/12/28 20:38:04;;;;;;;1999.90;999.90;;;;;;;5.03;67.30;97877.22;15803555;28;20457;-57
2020/12/28 20:45:37;;;;;;;1999.90;999.90;;;;;;;5.27;66.40;97878.06;15803465;28;20199;-57
2020/12/28 20:53:12;;;;;;;1999.90;999.90;;;;;;;5.14;66.57;97871.91;15803232;28;20060;-58
2020/12/28 21:00:47;;;;;;;1999.90;999.90;;;;;;;4.99;67.50;97859.75;15801277;28;20044;-56
2020/12/28 21:08:21;;;;;;;1999.90;999.90;;;;;;;5.06;67.36;97875.69;15800641;28;20048;-57
2020/12/28 21:15:53;;;;;;;1999.90;999.90;;;;;;;4.93;68.65;97869.53;15781385;28;20079;-58
2020/12/28 21:23:27;;;;;;;1999.90;999.90;;;;;;;4.54;71.48;97883.31;15800303;28;20040;-58
2020/12/28 21:30:59;;;;;;;1999.90;999.90;;;;;;;4.11;74.67;97884.31;15799368;28;20048;-54
2020/12/28 21:38:33;;;;;;;1999.90;999.90;;;;;;;3.69;77.10;97882.13;15800955;28;20427;-59
2020/12/28 21:46:05;;;;;;;1999.90;999.90;;;;;;;3.73;76.78;97871.19;15800035;28;20377;-62
2020/12/28 21:53:39;;;;;;;1999.90;999.90;;;;;;;4.10;76.37;97877.22;15799231;28;20501;-60
2020/12/28 22:01:12;;;;;;;1999.90;999.90;;;;;;;4.20;76.34;97873.91;15779836;28;20048;-61
2020/12/28 22:08:45;;;;;;;1999.90;999.90;;;;;;;4.28;75.42;97866.59;15797689;28;20044;-60
2020/12/28 22:16:19;;;;;;;1999.90;999.90;;;;;;;4.29;74.92;97854.38;15798465;28;20059;-61
2020/12/28 22:23:52;;;;;;;;;;;;;;;3.93;76.56;97848.03;15795588;28;20036;-61
2020/12/28 22:31:25;;;;;;;1999.90;999.90;;;;;;;3.99;75.63;97846.63;15796526;28;19955;-59
2020/12/28 22:38:58;;;;;;;1999.90;999.90;;;;;;;3.84;76.48;97846.63;15796430;28;20269;-62
2020/12/28 22:46:31;;;;;;;1999.90;999.90;;;;;;;3.58;77.61;97839.72;15794542;28;20424;-60
2020/12/28 22:54:04;;;;;;;1999.90;999.90;;;;;;;3.63;76.69;97842.19;15794825;28;20032;-61
2020/12/28 23:01:37;;;;;;;1999.90;999.90;;;;;;;3.79;76.49;97841.41;15778681;28;20044;-60
2020/12/28 23:09:14;;;;;;;1999.90;999.90;;;;;;;3.80;76.58;97843.00;15777773;28;20135;-60
2020/12/28 23:16:46;;;;;;;1999.90;999.90;;;;;;;3.63;77.15;97835.88;15793526;28;20485;-62
2020/12/28 23:24:20;;;;;;;1999.90;999.90;;;;;;;3.60;77.39;97833.84;15793319;28;20072;-61
2020/12/28 23:31:52;;;;;;;1999.90;999.90;;;;;;;3.51;77.78;97824.94;15792747;28;20119;-61
2020/12/28 23:39:26;;;;;;;1999.90;999.90;;;;;;;3.69;77.37;97812.41;15803166;28;20131;-61
2020/12/28 23:46:58;;;;;;;1999.90;999.90;;;;;;;4.04;76.55;97815.97;15806146;28;20147;-61
2020/12/28 23:54:32;;;;;;;1999.90;999.90;;;;;;;3.69;77.54;97827.00;15806145;28;20060;-59
